createdAt,value
2023-03-29T00:01:56.702Z,3.01
2023-03-29T00:05:02.187Z,3.44
2023-03-29T00:08:04.617Z,3.77
2023-03-29T00:11:07.606Z,2.98
2023-03-29T00:14:09.527Z,2.59
2023-03-29T00:17:11.549Z,2.84
2023-03-29T00:20:15.850Z,2.66
2023-03-29T00:23:18.299Z,3.08
2023-03-29T00:26:20.466Z,3.01
2023-03-29T00:29:22.338Z,3.08
2023-03-29T00:32:24.231Z,3.52
2023-03-29T00:35:26.189Z,3.35
2023-03-29T00:38:28.058Z,3.92
2023-03-29T00:41:29.975Z,4.25
2023-03-29T00:44:50.665Z,4.38
2023-03-29T00:47:57.542Z,3.75
2023-03-29T00:51:00.464Z,3.68
2023-03-29T00:54:03.512Z,3.89
2023-03-29T00:57:05.413Z,4.31
2023-03-29T01:00:10.246Z,3.53
2023-03-29T01:03:24.689Z,3.06
2023-03-29T01:06:27.072Z,2.29
2023-03-29T01:09:30.558Z,3.01
2023-03-29T01:12:35.897Z,2.83
2023-03-29T01:15:37.828Z,3.37
2023-03-29T01:18:39.821Z,3.22
2023-03-29T01:21:46.234Z,3.04
2023-03-29T01:24:53.650Z,2.80
2023-03-29T01:28:06.442Z,2.28
2023-03-29T01:31:09.384Z,2.62
2023-03-29T01:34:13.238Z,2.92
2023-03-29T01:37:20.472Z,2.69
2023-03-29T01:40:22.911Z,2.77
2023-03-29T01:43:24.859Z,2.88
2023-03-29T01:46:40.435Z,2.81
2023-03-29T01:49:45.336Z,2.42
2023-03-29T01:53:07.446Z,2.00
2023-03-29T01:56:13.888Z,2.71
2023-03-29T01:59:18.147Z,2.74
2023-03-29T02:02:20.604Z,3.05
2023-03-29T02:05:22.505Z,2.18
2023-03-29T02:08:24.359Z,2.83
2023-03-29T02:11:27.249Z,2.26
2023-03-29T02:14:30.485Z,2.57
2023-03-29T02:17:32.575Z,3.03
2023-03-29T02:20:38.949Z,3.19
2023-03-29T02:23:41.502Z,3.01
2023-03-29T02:26:43.408Z,2.82
2023-03-29T02:29:46.932Z,3.06
2023-03-29T02:32:53.438Z,2.87
2023-03-29T02:35:56.911Z,3.03
2023-03-29T02:38:59.252Z,3.19
2023-03-29T02:42:01.064Z,3.68
2023-03-29T02:45:03.050Z,3.27
2023-03-29T02:48:05.864Z,2.65
2023-03-29T02:51:09.653Z,2.90
2023-03-29T02:54:19.502Z,3.59
2023-03-29T02:57:26.734Z,3.33
2023-03-29T03:00:29.032Z,3.15
2023-03-29T03:03:31.854Z,3.70
2023-03-29T03:06:33.941Z,2.42
2023-03-29T03:09:35.772Z,2.94
2023-03-29T03:12:37.619Z,2.91
2023-03-29T03:15:42.835Z,3.08
2023-03-29T03:18:45.994Z,3.01
2023-03-29T03:21:47.895Z,2.49
2023-03-29T03:24:49.955Z,2.16
2023-03-29T03:27:52.179Z,2.33
2023-03-29T03:30:54.442Z,3.21
2023-03-29T03:33:56.686Z,2.44
2023-03-29T03:37:01.816Z,2.90
2023-03-29T03:40:04.736Z,3.14
2023-03-29T03:43:07.208Z,3.00
2023-03-29T03:46:09.580Z,3.16
2023-03-29T03:49:12.196Z,2.37
2023-03-29T03:52:14.159Z,2.92
2023-03-29T03:55:16.531Z,3.17
2023-03-29T03:58:18.441Z,3.47
2023-03-29T04:01:20.295Z,3.43
2023-03-29T04:04:23.357Z,4.06
2023-03-29T04:07:25.409Z,3.66
2023-03-29T04:10:27.410Z,3.20
2023-03-29T04:13:30.168Z,2.56
2023-03-29T04:16:32.038Z,3.33
2023-03-29T04:19:33.902Z,3.26
2023-03-29T04:22:35.959Z,2.58
2023-03-29T04:25:37.840Z,3.73
2023-03-29T04:28:40.308Z,2.43
2023-03-29T04:31:42.265Z,3.13
2023-03-29T04:34:44.319Z,2.20
2023-03-29T04:37:46.574Z,2.96
2023-03-29T04:40:49.025Z,3.37
2023-03-29T04:43:52.063Z,3.76
2023-03-29T04:46:54.035Z,3.39
2023-03-29T04:49:56.231Z,4.16
2023-03-29T04:53:00.280Z,4.37
2023-03-29T04:56:03.153Z,3.66
2023-03-29T04:59:05.481Z,3.72
2023-03-29T05:02:07.560Z,4.36
2023-03-29T05:05:09.802Z,4.19
2023-03-29T05:08:12.285Z,4.30
2023-03-29T05:11:15.308Z,3.46
2023-03-29T05:14:17.440Z,4.27
2023-03-29T05:17:19.346Z,4.85
2023-03-29T05:20:22.226Z,4.65
2023-03-29T05:23:24.378Z,4.61
2023-03-29T05:26:26.675Z,4.86
2023-03-29T05:29:28.554Z,4.46
2023-03-29T05:32:30.641Z,5.09
2023-03-29T05:35:33.116Z,3.95
2023-03-29T05:38:35.937Z,3.57
2023-03-29T05:41:38.021Z,3.72
2023-03-29T05:44:40.402Z,4.27
2023-03-29T05:47:42.504Z,4.67
2023-03-29T05:50:48.697Z,4.92
2023-03-29T05:53:51.485Z,5.14
2023-03-29T05:56:53.499Z,4.56
2023-03-29T05:59:56.710Z,4.76
2023-03-29T06:03:03.724Z,5.09
2023-03-29T06:06:11.932Z,5.17
2023-03-29T06:09:13.877Z,4.11
2023-03-29T06:12:16.126Z,4.68
2023-03-29T06:15:18.363Z,4.26
2023-03-29T06:18:22.492Z,5.46
2023-03-29T06:21:26.644Z,6.28
2023-03-29T06:24:28.652Z,4.88
2023-03-29T06:27:31.127Z,5.05
2023-03-29T06:30:33.064Z,6.09
2023-03-29T06:33:37.225Z,5.75
2023-03-29T06:36:39.353Z,5.75
2023-03-29T06:39:41.777Z,6.61
2023-03-29T06:42:45.414Z,6.87
2023-03-29T06:45:49.644Z,6.79
2023-03-29T06:48:51.685Z,6.93
2023-03-29T06:51:54.096Z,6.35
2023-03-29T06:54:56.167Z,7.10
2023-03-29T06:58:00.318Z,6.00
2023-03-29T07:01:05.579Z,6.94
2023-03-29T07:04:09.551Z,7.40
2023-03-29T07:07:20.108Z,6.76
2023-03-29T07:10:26.524Z,7.09
2023-03-29T07:13:30.602Z,7.99
2023-03-29T07:16:32.724Z,7.76
2023-03-29T07:19:34.892Z,8.64
2023-03-29T07:22:37.613Z,7.22
2023-03-29T07:25:39.561Z,7.88
2023-03-29T07:28:41.482Z,8.25
2023-03-29T07:31:44.299Z,8.00
2023-03-29T07:34:48.047Z,8.80
2023-03-29T07:37:52.247Z,8.12
2023-03-29T07:40:54.707Z,8.41
2023-03-29T07:43:57.044Z,8.95
2023-03-29T07:47:00.135Z,8.61
2023-03-29T07:50:02.151Z,10.34
2023-03-29T07:53:04.157Z,8.98
2023-03-29T07:56:06.493Z,9.42
2023-03-29T07:59:08.416Z,9.91
2023-03-29T08:02:13.065Z,10.62
2023-03-29T08:05:18.986Z,9.74
2023-03-29T08:08:25.457Z,10.69
2023-03-29T08:11:27.684Z,11.09
2023-03-29T08:14:29.593Z,10.19
2023-03-29T08:17:31.836Z,9.65
2023-03-29T08:20:34.068Z,10.11
2023-03-29T08:23:36.029Z,10.26
2023-03-29T08:26:37.878Z,9.56
2023-03-29T08:29:39.714Z,9.82
2023-03-29T08:32:41.834Z,8.65
2023-03-29T08:35:44.064Z,9.47
2023-03-29T08:38:46.171Z,10.10
2023-03-29T08:42:00.140Z,10.24
2023-03-29T08:45:03.668Z,9.26
2023-03-29T08:48:05.631Z,11.02
2023-03-29T08:51:21.611Z,10.09
2023-03-29T08:54:25.101Z,12.20
2023-03-29T08:57:31.941Z,13.52
2023-03-29T09:00:40.183Z,13.68
2023-03-29T09:03:46.305Z,10.97
2023-03-29T09:06:48.863Z,13.49
2023-03-29T09:09:50.901Z,14.17
2023-03-29T09:12:52.914Z,13.07
2023-03-29T09:16:06.858Z,13.88
2023-03-29T09:19:27.806Z,16.00
2023-03-29T09:22:29.892Z,15.75
2023-03-29T09:25:53.081Z,15.03
2023-03-29T09:29:00.343Z,13.23
2023-03-29T09:32:03.888Z,15.18
2023-03-29T09:35:20.284Z,13.16
2023-03-29T09:38:22.405Z,13.25
2023-03-29T09:41:26.725Z,14.37
2023-03-29T09:44:32.908Z,13.53
2023-03-29T09:47:39.970Z,11.65
2023-03-29T09:50:53.649Z,12.00
2023-03-29T09:53:56.718Z,12.77
2023-03-29T09:57:00.243Z,13.78
2023-03-29T10:00:05.853Z,14.09
2023-03-29T10:03:10.168Z,16.64
2023-03-29T10:06:12.920Z,15.87
2023-03-29T10:09:15.809Z,16.95
2023-03-29T10:12:17.782Z,15.95
2023-03-29T10:15:29.365Z,15.57
2023-03-29T10:18:32.479Z,15.75
2023-03-29T10:21:34.463Z,19.08
2023-03-29T10:24:36.341Z,16.00
2023-03-29T10:27:40.458Z,18.37
2023-03-29T10:30:43.096Z,19.82
2023-03-29T10:33:45.917Z,16.63
2023-03-29T10:36:58.552Z,17.89
2023-03-29T10:40:00.648Z,22.38
2023-03-29T10:43:20.844Z,22.82
2023-03-29T10:46:23.932Z,21.24
2023-03-29T10:49:25.907Z,23.01
2023-03-29T10:52:29.332Z,16.41
2023-03-29T10:55:35.690Z,19.28
2023-03-29T10:58:37.914Z,18.37
2023-03-29T11:01:52.115Z,17.59
2023-03-29T11:05:00.299Z,16.67
2023-03-29T11:08:08.833Z,16.20
2023-03-29T11:11:30.264Z,16.84
2023-03-29T11:14:35.439Z,14.15
2023-03-29T11:17:37.599Z,16.54
2023-03-29T11:20:46.819Z,17.41
2023-03-29T11:23:50.355Z,15.57
2023-03-29T11:27:11.408Z,18.53
2023-03-29T11:30:24.217Z,17.87
2023-03-29T11:33:44.892Z,17.27
2023-03-29T11:37:05.590Z,16.78
2023-03-29T11:40:15.381Z,16.01
2023-03-29T11:43:19.338Z,18.89
2023-03-29T11:46:22.127Z,18.82
2023-03-29T11:49:29.461Z,17.79
2023-03-29T11:52:36.307Z,20.95
2023-03-29T11:55:38.938Z,20.80
2023-03-29T11:58:42.681Z,20.62
2023-03-29T12:02:02.415Z,18.87
2023-03-29T12:05:07.706Z,20.74
2023-03-29T12:08:17.040Z,17.15
2023-03-29T12:11:19.846Z,17.14
2023-03-29T12:14:37.982Z,17.67
2023-03-29T12:17:44.467Z,19.04
2023-03-29T12:20:47.176Z,19.12
2023-03-29T12:23:49.134Z,20.04
2023-03-29T12:26:53.894Z,19.28
2023-03-29T12:30:07.927Z,19.71
2023-03-29T12:33:15.782Z,19.16
2023-03-29T12:36:20.704Z,20.31
2023-03-29T12:39:23.267Z,16.55
2023-03-29T12:42:25.198Z,20.29
2023-03-29T12:45:34.216Z,20.02
2023-03-29T12:48:40.368Z,16.12
2023-03-29T12:51:42.584Z,17.83
2023-03-29T12:54:52.446Z,16.24
2023-03-29T12:58:02.249Z,16.48
2023-03-29T13:01:08.311Z,16.41
2023-03-29T13:04:18.471Z,14.40
2023-03-29T13:07:23.474Z,17.43
2023-03-29T13:10:30.518Z,18.58
2023-03-29T13:13:32.524Z,19.27
2023-03-29T13:16:34.557Z,19.34
2023-03-29T13:19:36.671Z,17.75
2023-03-29T13:22:46.017Z,17.93
2023-03-29T13:26:01.239Z,17.01
2023-03-29T13:29:16.866Z,16.30
2023-03-29T13:32:36.038Z,15.09
2023-03-29T13:35:42.885Z,15.07
2023-03-29T13:38:48.896Z,13.45
2023-03-29T13:41:51.821Z,14.18
2023-03-29T13:44:53.994Z,13.60
2023-03-29T13:48:14.595Z,14.90
2023-03-29T13:51:36.889Z,15.43
2023-03-29T13:54:40.969Z,15.36
2023-03-29T13:57:49.906Z,14.42
2023-03-29T14:01:12.305Z,13.44
2023-03-29T14:04:17.225Z,14.93
2023-03-29T14:07:20.534Z,14.67
2023-03-29T14:10:32.460Z,15.30
2023-03-29T14:13:34.395Z,14.05
2023-03-29T14:16:37.147Z,14.60
2023-03-29T14:19:39.213Z,15.48
2023-03-29T14:22:42.163Z,14.46
2023-03-29T14:25:44.190Z,14.44
2023-03-29T14:28:46.544Z,14.93
2023-03-29T14:31:50.119Z,14.50
2023-03-29T14:34:53.151Z,14.71
2023-03-29T14:37:55.405Z,14.10
2023-03-29T14:41:00.806Z,12.54
2023-03-29T14:44:03.449Z,13.23
2023-03-29T14:47:05.549Z,13.43
2023-03-29T14:50:09.566Z,12.55
2023-03-29T14:53:16.652Z,12.10
2023-03-29T14:56:24.110Z,13.19
2023-03-29T14:59:32.684Z,12.27
2023-03-29T15:02:34.828Z,13.45
2023-03-29T15:05:37.744Z,12.96
2023-03-29T15:08:42.696Z,13.50
2023-03-29T15:11:54.011Z,12.36
2023-03-29T15:14:56.093Z,12.78
2023-03-29T15:17:59.008Z,12.20
2023-03-29T15:21:01.947Z,12.23
2023-03-29T15:24:04.461Z,12.42
2023-03-29T15:27:17.175Z,13.01
2023-03-29T15:30:19.384Z,12.62
2023-03-29T15:33:23.022Z,13.68
2023-03-29T15:36:26.609Z,12.98
2023-03-29T15:39:29.448Z,12.83
2023-03-29T15:42:31.572Z,13.32
2023-03-29T15:45:33.680Z,13.08
2023-03-29T15:48:35.610Z,13.08
2023-03-29T15:51:37.625Z,12.72
2023-03-29T15:54:39.684Z,11.71
2023-03-29T15:57:42.114Z,12.62
2023-03-29T16:00:44.881Z,13.09
2023-03-29T16:03:48.169Z,13.06
2023-03-29T16:06:52.753Z,12.90
2023-03-29T16:09:54.758Z,12.22
2023-03-29T16:12:56.644Z,12.22
2023-03-29T16:15:58.778Z,13.14
2023-03-29T16:19:00.953Z,13.04
2023-03-29T16:22:05.229Z,12.99
2023-03-29T16:25:11.836Z,13.26
2023-03-29T16:28:13.863Z,12.49
2023-03-29T16:31:15.797Z,12.54
2023-03-29T16:34:18.851Z,11.96
2023-03-29T16:37:20.832Z,11.77
2023-03-29T16:40:26.112Z,12.42
2023-03-29T16:43:28.094Z,12.40
2023-03-29T16:46:30.818Z,12.00
2023-03-29T16:49:32.780Z,12.16
2023-03-29T16:52:34.717Z,12.14
2023-03-29T16:55:38.104Z,12.84
2023-03-29T16:58:40.983Z,12.30
2023-03-29T17:01:43.001Z,12.15
2023-03-29T17:04:45.751Z,13.03
2023-03-29T17:07:47.880Z,11.58
2023-03-29T17:10:54.290Z,12.61
2023-03-29T17:13:56.222Z,12.54
2023-03-29T17:16:58.244Z,12.05
2023-03-29T17:20:00.370Z,11.86
2023-03-29T17:23:02.515Z,11.83
2023-03-29T17:26:05.140Z,11.31
2023-03-29T17:29:07.329Z,12.35
2023-03-29T17:32:09.445Z,12.12
2023-03-29T17:35:11.734Z,11.83
2023-03-29T17:38:13.710Z,11.66
2023-03-29T17:41:16.184Z,11.49
2023-03-29T17:44:18.200Z,12.07
2023-03-29T17:47:20.101Z,12.25
2023-03-29T17:50:22.291Z,10.84
2023-03-29T17:53:24.513Z,12.12
2023-03-29T17:56:26.732Z,11.94
2023-03-29T17:59:28.655Z,11.77
2023-03-29T18:02:30.784Z,11.80
2023-03-29T18:05:33.722Z,12.03
2023-03-29T18:08:36.147Z,11.93
2023-03-29T18:11:39.459Z,11.97
2023-03-29T18:14:41.362Z,12.03
2023-03-29T18:17:43.409Z,11.23
2023-03-29T18:20:45.394Z,12.27
2023-03-29T18:23:47.657Z,11.94
2023-03-29T18:26:49.728Z,11.83
2023-03-29T18:29:51.743Z,11.86
2023-03-29T18:32:53.644Z,11.83
2023-03-29T18:35:55.654Z,11.78
2023-03-29T18:39:05.444Z,11.42
2023-03-29T18:42:08.359Z,11.47
2023-03-29T18:45:11.848Z,11.44
2023-03-29T18:48:13.742Z,11.08
2023-03-29T18:51:16.088Z,10.39
2023-03-29T18:54:18.172Z,11.88
2023-03-29T18:57:20.142Z,11.98
2023-03-29T19:00:22.094Z,11.92
2023-03-29T19:03:24.178Z,11.13
2023-03-29T19:06:26.601Z,10.81
2023-03-29T19:09:28.818Z,11.47
2023-03-29T19:12:32.801Z,11.99
2023-03-29T19:15:35.081Z,11.58
2023-03-29T19:18:37.130Z,11.62
2023-03-29T19:21:39.016Z,11.82
2023-03-29T19:24:40.966Z,12.08
2023-03-29T19:27:42.825Z,11.71
2023-03-29T19:30:44.813Z,11.06
2023-03-29T19:33:46.851Z,11.54
2023-03-29T19:36:48.878Z,11.72
2023-03-29T19:39:50.825Z,11.55
2023-03-29T19:42:52.854Z,11.18
2023-03-29T19:45:54.759Z,11.68
2023-03-29T19:48:56.810Z,11.02
2023-03-29T19:51:59.214Z,11.41
2023-03-29T19:55:01.496Z,10.71
2023-03-29T19:58:04.387Z,11.17
2023-03-29T20:01:06.487Z,9.87
2023-03-29T20:04:09.004Z,10.10
2023-03-29T20:07:11.151Z,10.21
2023-03-29T20:10:12.974Z,9.85
2023-03-29T20:13:17.348Z,10.36
2023-03-29T20:16:27.160Z,10.97
2023-03-29T20:19:30.114Z,10.57
2023-03-29T20:22:32.812Z,10.67
2023-03-29T20:25:35.079Z,10.35
2023-03-29T20:28:37.845Z,10.94
2023-03-29T20:31:39.937Z,10.74
2023-03-29T20:34:41.890Z,10.77
2023-03-29T20:37:43.977Z,11.45
2023-03-29T20:40:45.839Z,10.77
2023-03-29T20:43:47.721Z,11.37
2023-03-29T20:47:06.654Z,11.10
2023-03-29T20:50:10.620Z,10.40
2023-03-29T20:53:13.059Z,10.62
2023-03-29T20:56:15.589Z,11.05
2023-03-29T20:59:17.754Z,10.48
2023-03-29T21:02:21.713Z,10.86
2023-03-29T21:05:24.243Z,11.05
2023-03-29T21:08:28.832Z,11.63
2023-03-29T21:11:31.017Z,11.78
2023-03-29T21:14:33.391Z,11.29
2023-03-29T21:17:36.055Z,11.56
2023-03-29T21:20:38.000Z,10.93
2023-03-29T21:23:39.870Z,10.85
2023-03-29T21:26:41.823Z,11.54
2023-03-29T21:29:43.667Z,10.67
2023-03-29T21:32:45.733Z,11.20
2023-03-29T21:35:48.577Z,10.85
2023-03-29T21:38:50.835Z,10.89
2023-03-29T21:41:52.932Z,11.38
2023-03-29T21:44:54.915Z,10.83
2023-03-29T21:47:56.907Z,11.31
2023-03-29T21:50:58.864Z,10.71
2023-03-29T21:54:01.164Z,11.71
2023-03-29T21:57:03.137Z,11.10
2023-03-29T22:00:10.883Z,10.99
2023-03-29T22:03:13.322Z,10.91
2023-03-29T22:06:15.338Z,10.65
2023-03-29T22:09:17.224Z,11.36
2023-03-29T22:12:19.300Z,10.74
2023-03-29T22:15:21.242Z,10.79
2023-03-29T22:18:23.833Z,11.48
2023-03-29T22:21:26.734Z,10.35
2023-03-29T22:24:29.229Z,11.23
2023-03-29T22:27:31.182Z,10.49
2023-03-29T22:30:33.116Z,11.72
2023-03-29T22:33:35.633Z,11.34
2023-03-29T22:36:37.689Z,11.13
2023-03-29T22:39:39.588Z,10.96
2023-03-29T22:42:41.629Z,11.13
2023-03-29T22:45:43.857Z,11.25
2023-03-29T22:48:46.074Z,11.17
2023-03-29T22:51:48.056Z,10.88
2023-03-29T22:54:49.960Z,11.00
2023-03-29T22:57:51.848Z,10.65
2023-03-29T23:00:53.739Z,10.59
2023-03-29T23:03:58.075Z,10.44
2023-03-29T23:07:02.095Z,10.22
2023-03-29T23:10:07.522Z,10.02
2023-03-29T23:13:09.683Z,8.59
2023-03-29T23:16:11.687Z,9.21
2023-03-29T23:19:13.664Z,9.70
2023-03-29T23:22:16.059Z,9.98
2023-03-29T23:25:17.965Z,9.85
2023-03-29T23:28:21.626Z,10.65
2023-03-29T23:31:23.891Z,11.16
2023-03-29T23:34:25.868Z,10.54
2023-03-29T23:37:28.057Z,9.93
2023-03-29T23:40:29.917Z,10.10
2023-03-29T23:43:33.029Z,10.12
2023-03-29T23:46:35.188Z,10.28
2023-03-29T23:49:37.448Z,9.57
2023-03-29T23:52:41.036Z,9.98
2023-03-29T23:55:42.985Z,10.81
2023-03-29T23:58:44.989Z,10.01
